sensor_id;sensor_type;location;lat;lon;timestamp;temperature;humidity
3770;DHT22;1900;48.890;9.190;2023-07-30T00:01:56;24.40;64.70
3770;DHT22;1900;48.890;9.190;2023-07-30T00:04:21;24.40;64.80
3770;DHT22;1900;48.890;9.190;2023-07-30T00:06:47;24.30;64.90
3770;DHT22;1900;48.890;9.190;2023-07-30T00:09:13;24.30;64.90
3770;DHT22;1900;48.890;9.190;2023-07-30T00:11:38;24.20;64.70
3770;DHT22;1900;48.890;9.190;2023-07-30T00:14:04;24.20;64.80
3770;DHT22;1900;48.890;9.190;2023-07-30T00:16:30;24.10;64.70
3770;DHT22;1900;48.890;9.190;2023-07-30T00:18:56;24.10;64.60
3770;DHT22;1900;48.890;9.190;2023-07-30T00:21:22;24.00;64.50
3770;DHT22;1900;48.890;9.190;2023-07-30T00:23:48;24.00;64.50
3770;DHT22;1900;48.890;9.190;2023-07-30T00:26:14;23.90;64.40
3770;DHT22;1900;48.890;9.190;2023-07-30T00:28:39;23.80;64.30
3770;DHT22;1900;48.890;9.190;2023-07-30T00:31:05;23.80;64.40
3770;DHT22;1900;48.890;9.190;2023-07-30T00:33:31;23.70;64.50
3770;DHT22;1900;48.890;9.190;2023-07-30T00:35:56;23.70;64.70
3770;DHT22;1900;48.890;9.190;2023-07-30T00:38:22;23.70;64.80
3770;DHT22;1900;48.890;9.190;2023-07-30T00:40:48;23.70;64.90
3770;DHT22;1900;48.890;9.190;2023-07-30T00:43:13;23.70;65.00
3770;DHT22;1900;48.890;9.190;2023-07-30T00:45:42;23.70;65.10
3770;DHT22;1900;48.890;9.190;2023-07-30T00:48:10;23.60;65.00
3770;DHT22;1900;48.890;9.190;2023-07-30T00:50:36;23.70;65.00
3770;DHT22;1900;48.890;9.190;2023-07-30T00:53:02;23.60;64.90
3770;DHT22;1900;48.890;9.190;2023-07-30T00:55:28;23.60;65.00
3770;DHT22;1900;48.890;9.190;2023-07-30T00:57:53;23.60;65.00
3770;DHT22;1900;48.890;9.190;2023-07-30T01:00:22;23.60;65.10
3770;DHT22;1900;48.890;9.190;2023-07-30T01:02:51;23.60;65.10
3770;DHT22;1900;48.890;9.190;2023-07-30T01:05:17;23.60;65.20
3770;DHT22;1900;48.890;9.190;2023-07-30T01:07:43;23.60;65.20
3770;DHT22;1900;48.890;9.190;2023-07-30T01:10:09;23.60;65.30
3770;DHT22;1900;48.890;9.190;2023-07-30T01:12:35;23.60;65.30
3770;DHT22;1900;48.890;9.190;2023-07-30T01:15:03;23.60;65.30
3770;DHT22;1900;48.890;9.190;2023-07-30T01:17:29;23.60;65.30
3770;DHT22;1900;48.890;9.190;2023-07-30T01:19:55;23.60;65.30
3770;DHT22;1900;48.890;9.190;2023-07-30T01:22:22;23.60;65.30
3770;DHT22;1900;48.890;9.190;2023-07-30T01:24:51;23.60;65.30
3770;DHT22;1900;48.890;9.190;2023-07-30T01:27:24;23.60;65.20
3770;DHT22;1900;48.890;9.190;2023-07-30T01:30:08;23.60;65.20
3770;DHT22;1900;48.890;9.190;2023-07-30T01:32:36;23.60;65.30
3770;DHT22;1900;48.890;9.190;2023-07-30T01:35:03;23.60;65.20
3770;DHT22;1900;48.890;9.190;2023-07-30T01:37:30;23.60;65.30
3770;DHT22;1900;48.890;9.190;2023-07-30T01:39:56;23.60;65.40
3770;DHT22;1900;48.890;9.190;2023-07-30T01:42:28;23.60;65.50
3770;DHT22;1900;48.890;9.190;2023-07-30T01:44:54;23.60;65.60
3770;DHT22;1900;48.890;9.190;2023-07-30T01:47:19;23.60;65.60
3770;DHT22;1900;48.890;9.190;2023-07-30T01:49:45;23.60;65.60
3770;DHT22;1900;48.890;9.190;2023-07-30T01:52:11;23.60;65.70
3770;DHT22;1900;48.890;9.190;2023-07-30T01:54:36;23.60;65.70
3770;DHT22;1900;48.890;9.190;2023-07-30T01:57:02;23.60;65.70
3770;DHT22;1900;48.890;9.190;2023-07-30T01:59:28;23.60;65.70
3770;DHT22;1900;48.890;9.190;2023-07-30T02:01:54;23.60;65.70
3770;DHT22;1900;48.890;9.190;2023-07-30T02:04:19;23.60;65.70
3770;DHT22;1900;48.890;9.190;2023-07-30T02:06:45;23.70;65.80
3770;DHT22;1900;48.890;9.190;2023-07-30T02:09:11;23.70;65.80
3770;DHT22;1900;48.890;9.190;2023-07-30T02:11:37;23.60;65.70
3770;DHT22;1900;48.890;9.190;2023-07-30T02:14:02;23.70;65.80
3770;DHT22;1900;48.890;9.190;2023-07-30T02:16:28;23.60;65.80
3770;DHT22;1900;48.890;9.190;2023-07-30T02:18:54;23.60;65.80
3770;DHT22;1900;48.890;9.190;2023-07-30T02:21:19;23.60;65.70
3770;DHT22;1900;48.890;9.190;2023-07-30T02:23:45;23.70;65.80
3770;DHT22;1900;48.890;9.190;2023-07-30T02:26:11;23.60;65.70
3770;DHT22;1900;48.890;9.190;2023-07-30T02:28:36;23.60;65.70
3770;DHT22;1900;48.890;9.190;2023-07-30T02:31:02;23.60;66.30
3770;DHT22;1900;48.890;9.190;2023-07-30T02:33:27;23.60;65.60
3770;DHT22;1900;48.890;9.190;2023-07-30T02:35:53;23.60;65.70
3770;DHT22;1900;48.890;9.190;2023-07-30T02:38:19;23.60;65.80
3770;DHT22;1900;48.890;9.190;2023-07-30T02:40:44;23.60;65.90
3770;DHT22;1900;48.890;9.190;2023-07-30T02:43:10;23.60;66.00
3770;DHT22;1900;48.890;9.190;2023-07-30T02:45:36;23.60;66.00
3770;DHT22;1900;48.890;9.190;2023-07-30T02:48:01;23.60;66.00
3770;DHT22;1900;48.890;9.190;2023-07-30T02:50:27;23.60;66.00
3770;DHT22;1900;48.890;9.190;2023-07-30T02:52:53;23.60;66.20
3770;DHT22;1900;48.890;9.190;2023-07-30T02:55:19;23.60;66.10
3770;DHT22;1900;48.890;9.190;2023-07-30T02:57:45;23.60;66.10
3770;DHT22;1900;48.890;9.190;2023-07-30T03:00:11;23.60;66.10
3770;DHT22;1900;48.890;9.190;2023-07-30T03:02:36;23.60;66.10
3770;DHT22;1900;48.890;9.190;2023-07-30T03:05:02;23.60;66.00
3770;DHT22;1900;48.890;9.190;2023-07-30T03:07:28;23.60;66.00
3770;DHT22;1900;48.890;9.190;2023-07-30T03:09:54;23.60;66.00
3770;DHT22;1900;48.890;9.190;2023-07-30T03:12:19;23.60;66.00
3770;DHT22;1900;48.890;9.190;2023-07-30T03:14:45;23.60;66.00
3770;DHT22;1900;48.890;9.190;2023-07-30T03:17:11;23.50;66.00
3770;DHT22;1900;48.890;9.190;2023-07-30T03:19:36;23.50;66.00
3770;DHT22;1900;48.890;9.190;2023-07-30T03:22:02;23.50;66.00
3770;DHT22;1900;48.890;9.190;2023-07-30T03:24:28;23.50;66.10
3770;DHT22;1900;48.890;9.190;2023-07-30T03:26:53;23.50;66.20
3770;DHT22;1900;48.890;9.190;2023-07-30T03:29:19;23.50;66.20
3770;DHT22;1900;48.890;9.190;2023-07-30T03:31:45;23.50;66.20
3770;DHT22;1900;48.890;9.190;2023-07-30T03:34:10;23.50;66.20
3770;DHT22;1900;48.890;9.190;2023-07-30T03:36:36;23.50;66.20
3770;DHT22;1900;48.890;9.190;2023-07-30T03:39:02;23.50;66.20
3770;DHT22;1900;48.890;9.190;2023-07-30T03:41:27;23.40;66.10
3770;DHT22;1900;48.890;9.190;2023-07-30T03:43:53;23.40;66.10
3770;DHT22;1900;48.890;9.190;2023-07-30T03:46:18;23.40;66.10
3770;DHT22;1900;48.890;9.190;2023-07-30T03:48:46;23.40;66.10
3770;DHT22;1900;48.890;9.190;2023-07-30T03:51:13;23.40;66.20
3770;DHT22;1900;48.890;9.190;2023-07-30T03:53:39;23.40;66.40
3770;DHT22;1900;48.890;9.190;2023-07-30T03:56:05;23.40;66.50
3770;DHT22;1900;48.890;9.190;2023-07-30T03:58:30;23.40;66.50
3770;DHT22;1900;48.890;9.190;2023-07-30T04:00:56;23.40;66.70
3770;DHT22;1900;48.890;9.190;2023-07-30T04:03:22;23.50;66.80
3770;DHT22;1900;48.890;9.190;2023-07-30T04:05:48;23.50;66.80
3770;DHT22;1900;48.890;9.190;2023-07-30T04:08:13;23.50;66.90
3770;DHT22;1900;48.890;9.190;2023-07-30T04:10:39;23.50;66.90
3770;DHT22;1900;48.890;9.190;2023-07-30T04:13:05;23.60;67.00
3770;DHT22;1900;48.890;9.190;2023-07-30T04:15:33;23.60;67.00
3770;DHT22;1900;48.890;9.190;2023-07-30T04:17:59;23.60;67.10
3770;DHT22;1900;48.890;9.190;2023-07-30T04:20:25;23.60;67.10
3770;DHT22;1900;48.890;9.190;2023-07-30T04:22:51;23.60;67.10
3770;DHT22;1900;48.890;9.190;2023-07-30T04:25:17;23.70;67.20
3770;DHT22;1900;48.890;9.190;2023-07-30T04:27:44;23.70;67.30
3770;DHT22;1900;48.890;9.190;2023-07-30T04:30:10;23.70;67.20
3770;DHT22;1900;48.890;9.190;2023-07-30T04:32:36;23.70;67.30
3770;DHT22;1900;48.890;9.190;2023-07-30T04:35:02;23.80;67.40
3770;DHT22;1900;48.890;9.190;2023-07-30T04:37:28;23.80;67.40
3770;DHT22;1900;48.890;9.190;2023-07-30T04:39:54;23.80;67.40
3770;DHT22;1900;48.890;9.190;2023-07-30T04:42:20;23.80;67.40
3770;DHT22;1900;48.890;9.190;2023-07-30T04:44:47;23.80;67.40
3770;DHT22;1900;48.890;9.190;2023-07-30T04:47:15;23.80;67.40
3770;DHT22;1900;48.890;9.190;2023-07-30T04:49:40;23.80;67.40
3770;DHT22;1900;48.890;9.190;2023-07-30T04:52:07;23.80;67.40
3770;DHT22;1900;48.890;9.190;2023-07-30T04:54:33;23.80;67.40
3770;DHT22;1900;48.890;9.190;2023-07-30T04:57:02;23.80;67.40
3770;DHT22;1900;48.890;9.190;2023-07-30T04:59:27;23.80;67.40
3770;DHT22;1900;48.890;9.190;2023-07-30T05:01:53;23.80;67.30
3770;DHT22;1900;48.890;9.190;2023-07-30T05:04:19;23.80;67.20
3770;DHT22;1900;48.890;9.190;2023-07-30T05:06:44;23.80;67.30
3770;DHT22;1900;48.890;9.190;2023-07-30T05:09:13;23.80;67.40
3770;DHT22;1900;48.890;9.190;2023-07-30T05:11:39;23.80;67.40
3770;DHT22;1900;48.890;9.190;2023-07-30T05:14:05;23.80;68.10
3770;DHT22;1900;48.890;9.190;2023-07-30T05:16:30;23.80;67.50
3770;DHT22;1900;48.890;9.190;2023-07-30T05:18:56;23.80;67.50
3770;DHT22;1900;48.890;9.190;2023-07-30T05:21:22;23.90;67.60
3770;DHT22;1900;48.890;9.190;2023-07-30T05:23:47;23.90;67.60
3770;DHT22;1900;48.890;9.190;2023-07-30T05:26:13;23.90;67.60
3770;DHT22;1900;48.890;9.190;2023-07-30T05:28:38;23.90;67.60
3770;DHT22;1900;48.890;9.190;2023-07-30T05:31:04;23.80;67.60
3770;DHT22;1900;48.890;9.190;2023-07-30T05:33:30;23.80;67.50
3770;DHT22;1900;48.890;9.190;2023-07-30T05:35:56;23.90;67.60
3770;DHT22;1900;48.890;9.190;2023-07-30T05:38:22;23.90;67.70
3770;DHT22;1900;48.890;9.190;2023-07-30T05:40:47;23.90;67.60
3770;DHT22;1900;48.890;9.190;2023-07-30T05:43:13;23.90;67.60
3770;DHT22;1900;48.890;9.190;2023-07-30T05:45:39;23.90;67.70
3770;DHT22;1900;48.890;9.190;2023-07-30T05:48:04;23.90;67.70
3770;DHT22;1900;48.890;9.190;2023-07-30T05:50:30;23.90;67.70
3770;DHT22;1900;48.890;9.190;2023-07-30T05:52:56;23.90;67.70
3770;DHT22;1900;48.890;9.190;2023-07-30T05:55:21;23.90;67.70
3770;DHT22;1900;48.890;9.190;2023-07-30T05:57:47;23.90;67.70
3770;DHT22;1900;48.890;9.190;2023-07-30T06:00:13;23.80;67.60
3770;DHT22;1900;48.890;9.190;2023-07-30T06:02:38;23.80;67.60
3770;DHT22;1900;48.890;9.190;2023-07-30T06:05:04;23.90;67.60
3770;DHT22;1900;48.890;9.190;2023-07-30T06:07:30;23.80;67.50
3770;DHT22;1900;48.890;9.190;2023-07-30T06:09:56;23.80;67.50
3770;DHT22;1900;48.890;9.190;2023-07-30T06:12:21;23.80;67.50
3770;DHT22;1900;48.890;9.190;2023-07-30T06:14:47;23.80;67.50
3770;DHT22;1900;48.890;9.190;2023-07-30T06:17:13;23.80;67.60
3770;DHT22;1900;48.890;9.190;2023-07-30T06:19:38;23.80;67.50
3770;DHT22;1900;48.890;9.190;2023-07-30T06:22:04;23.80;67.40
3770;DHT22;1900;48.890;9.190;2023-07-30T06:24:30;23.80;67.40
3770;DHT22;1900;48.890;9.190;2023-07-30T06:26:58;23.80;67.50
3770;DHT22;1900;48.890;9.190;2023-07-30T06:29:24;23.80;67.60
3770;DHT22;1900;48.890;9.190;2023-07-30T06:31:50;23.80;67.70
3770;DHT22;1900;48.890;9.190;2023-07-30T06:34:15;23.80;67.80
3770;DHT22;1900;48.890;9.190;2023-07-30T06:36:41;23.80;67.70
3770;DHT22;1900;48.890;9.190;2023-07-30T06:39:07;23.80;67.70
3770;DHT22;1900;48.890;9.190;2023-07-30T06:41:32;23.80;67.70
3770;DHT22;1900;48.890;9.190;2023-07-30T06:43:59;23.80;67.70
3770;DHT22;1900;48.890;9.190;2023-07-30T06:46:24;23.80;67.70
3770;DHT22;1900;48.890;9.190;2023-07-30T06:48:50;23.80;67.80
3770;DHT22;1900;48.890;9.190;2023-07-30T06:51:19;23.80;68.00
3770;DHT22;1900;48.890;9.190;2023-07-30T06:53:45;23.80;68.30
3770;DHT22;1900;48.890;9.190;2023-07-30T06:56:10;23.90;68.50
3770;DHT22;1900;48.890;9.190;2023-07-30T06:58:36;23.90;68.60
3770;DHT22;1900;48.890;9.190;2023-07-30T07:01:01;23.90;68.60
3770;DHT22;1900;48.890;9.190;2023-07-30T07:03:28;24.00;68.70
3770;DHT22;1900;48.890;9.190;2023-07-30T07:05:54;24.00;68.70
3770;DHT22;1900;48.890;9.190;2023-07-30T07:08:20;24.00;68.70
3770;DHT22;1900;48.890;9.190;2023-07-30T07:10:46;24.00;68.80
3770;DHT22;1900;48.890;9.190;2023-07-30T07:13:12;24.10;68.90
3770;DHT22;1900;48.890;9.190;2023-07-30T07:15:41;24.10;69.00
3770;DHT22;1900;48.890;9.190;2023-07-30T07:18:07;24.20;69.10
3770;DHT22;1900;48.890;9.190;2023-07-30T07:20:33;24.20;69.10
3770;DHT22;1900;48.890;9.190;2023-07-30T07:22:58;24.30;69.20
3770;DHT22;1900;48.890;9.190;2023-07-30T07:25:27;24.30;69.20
3770;DHT22;1900;48.890;9.190;2023-07-30T07:27:52;24.30;69.20
3770;DHT22;1900;48.890;9.190;2023-07-30T07:30:18;24.30;69.30
3770;DHT22;1900;48.890;9.190;2023-07-30T07:32:44;24.40;69.40
3770;DHT22;1900;48.890;9.190;2023-07-30T07:35:09;24.40;69.40
3770;DHT22;1900;48.890;9.190;2023-07-30T07:37:35;24.50;69.40
3770;DHT22;1900;48.890;9.190;2023-07-30T07:40:01;24.50;69.40
3770;DHT22;1900;48.890;9.190;2023-07-30T07:42:29;24.50;69.40
3770;DHT22;1900;48.890;9.190;2023-07-30T07:44:56;24.50;69.40
3770;DHT22;1900;48.890;9.190;2023-07-30T07:47:21;24.50;69.40
3770;DHT22;1900;48.890;9.190;2023-07-30T07:49:47;24.60;69.50
3770;DHT22;1900;48.890;9.190;2023-07-30T07:52:14;24.60;69.40
3770;DHT22;1900;48.890;9.190;2023-07-30T07:54:40;24.60;69.30
3770;DHT22;1900;48.890;9.190;2023-07-30T07:57:07;24.60;69.30
3770;DHT22;1900;48.890;9.190;2023-07-30T07:59:34;24.60;69.90
3770;DHT22;1900;48.890;9.190;2023-07-30T08:01:59;24.60;69.20
3770;DHT22;1900;48.890;9.190;2023-07-30T08:04:25;24.60;69.10
3770;DHT22;1900;48.890;9.190;2023-07-30T08:06:51;24.60;69.10
3770;DHT22;1900;48.890;9.190;2023-07-30T08:09:16;24.60;69.20
3770;DHT22;1900;48.890;9.190;2023-07-30T08:11:42;24.60;69.20
3770;DHT22;1900;48.890;9.190;2023-07-30T08:14:08;24.60;69.30
3770;DHT22;1900;48.890;9.190;2023-07-30T08:16:33;24.60;69.30
3770;DHT22;1900;48.890;9.190;2023-07-30T08:18:59;24.60;69.30
3770;DHT22;1900;48.890;9.190;2023-07-30T08:21:25;24.60;69.40
3770;DHT22;1900;48.890;9.190;2023-07-30T08:23:50;24.60;69.40
3770;DHT22;1900;48.890;9.190;2023-07-30T08:26:16;24.60;69.50
3770;DHT22;1900;48.890;9.190;2023-07-30T08:28:42;24.60;69.60
3770;DHT22;1900;48.890;9.190;2023-07-30T08:31:07;24.70;69.70
3770;DHT22;1900;48.890;9.190;2023-07-30T08:33:33;24.70;69.60
3770;DHT22;1900;48.890;9.190;2023-07-30T08:35:59;24.70;69.70
3770;DHT22;1900;48.890;9.190;2023-07-30T08:38:25;24.70;69.70
3770;DHT22;1900;48.890;9.190;2023-07-30T08:40:51;24.70;69.70
3770;DHT22;1900;48.890;9.190;2023-07-30T08:43:18;24.80;69.70
3770;DHT22;1900;48.890;9.190;2023-07-30T08:45:44;24.80;69.70
3770;DHT22;1900;48.890;9.190;2023-07-30T08:48:10;24.80;69.80
3770;DHT22;1900;48.890;9.190;2023-07-30T08:50:36;24.80;69.80
3770;DHT22;1900;48.890;9.190;2023-07-30T08:53:03;24.80;69.90
3770;DHT22;1900;48.890;9.190;2023-07-30T08:55:29;24.90;69.90
3770;DHT22;1900;48.890;9.190;2023-07-30T08:58:01;24.90;69.90
3770;DHT22;1900;48.890;9.190;2023-07-30T09:00:30;24.90;70.00
3770;DHT22;1900;48.890;9.190;2023-07-30T09:02:59;24.90;70.10
3770;DHT22;1900;48.890;9.190;2023-07-30T09:05:26;25.00;70.30
3770;DHT22;1900;48.890;9.190;2023-07-30T09:07:55;25.00;70.30
3770;DHT22;1900;48.890;9.190;2023-07-30T09:10:21;25.10;70.30
3770;DHT22;1900;48.890;9.190;2023-07-30T09:12:52;25.10;70.30
3770;DHT22;1900;48.890;9.190;2023-07-30T09:15:35;25.20;70.60
3770;DHT22;1900;48.890;9.190;2023-07-30T09:18:06;25.20;70.60
3770;DHT22;1900;48.890;9.190;2023-07-30T09:20:38;25.20;70.40
3770;DHT22;1900;48.890;9.190;2023-07-30T09:23:06;25.30;70.40
3770;DHT22;1900;48.890;9.190;2023-07-30T09:25:33;25.30;70.30
3770;DHT22;1900;48.890;9.190;2023-07-30T09:27:58;25.30;70.30
3770;DHT22;1900;48.890;9.190;2023-07-30T09:30:25;25.40;70.30
3770;DHT22;1900;48.890;9.190;2023-07-30T09:32:53;25.40;70.20
3770;DHT22;1900;48.890;9.190;2023-07-30T09:35:19;25.40;70.20
3770;DHT22;1900;48.890;9.190;2023-07-30T09:37:45;25.40;70.10
3770;DHT22;1900;48.890;9.190;2023-07-30T09:40:13;25.50;70.20
3770;DHT22;1900;48.890;9.190;2023-07-30T09:42:41;25.50;70.20
3770;DHT22;1900;48.890;9.190;2023-07-30T09:45:09;25.60;70.30
3770;DHT22;1900;48.890;9.190;2023-07-30T09:47:46;25.60;70.30
3770;DHT22;1900;48.890;9.190;2023-07-30T09:50:13;25.70;70.30
3770;DHT22;1900;48.890;9.190;2023-07-30T09:52:39;25.70;70.40
3770;DHT22;1900;48.890;9.190;2023-07-30T09:55:07;25.80;70.40
3770;DHT22;1900;48.890;9.190;2023-07-30T09:57:33;25.80;70.40
3770;DHT22;1900;48.890;9.190;2023-07-30T09:59:58;25.80;70.50
3770;DHT22;1900;48.890;9.190;2023-07-30T10:02:25;25.90;70.60
3770;DHT22;1900;48.890;9.190;2023-07-30T10:04:55;26.00;70.50
3770;DHT22;1900;48.890;9.190;2023-07-30T10:07:23;26.00;70.50
3770;DHT22;1900;48.890;9.190;2023-07-30T10:09:51;26.00;70.50
3770;DHT22;1900;48.890;9.190;2023-07-30T10:12:22;26.00;70.50
3770;DHT22;1900;48.890;9.190;2023-07-30T10:14:49;26.10;70.60
3770;DHT22;1900;48.890;9.190;2023-07-30T10:17:16;26.20;70.80
3770;DHT22;1900;48.890;9.190;2023-07-30T10:19:47;26.30;70.80
3770;DHT22;1900;48.890;9.190;2023-07-30T10:24:40;26.40;70.80
3770;DHT22;1900;48.890;9.190;2023-07-30T10:27:09;26.50;70.80
3770;DHT22;1900;48.890;9.190;2023-07-30T10:29:41;26.50;70.60
3770;DHT22;1900;48.890;9.190;2023-07-30T10:32:07;26.60;70.60
3770;DHT22;1900;48.890;9.190;2023-07-30T10:34:47;26.70;70.40
3770;DHT22;1900;48.890;9.190;2023-07-30T10:37:21;26.70;70.20
3770;DHT22;1900;48.890;9.190;2023-07-30T10:39:49;26.80;70.40
3770;DHT22;1900;48.890;9.190;2023-07-30T10:42:15;26.80;70.20
3770;DHT22;1900;48.890;9.190;2023-07-30T10:44:44;26.90;70.20
3770;DHT22;1900;48.890;9.190;2023-07-30T10:47:16;26.90;70.20
3770;DHT22;1900;48.890;9.190;2023-07-30T10:49:42;27.00;70.10
3770;DHT22;1900;48.890;9.190;2023-07-30T10:52:09;27.00;70.10
3770;DHT22;1900;48.890;9.190;2023-07-30T10:54:36;27.10;70.70
3770;DHT22;1900;48.890;9.190;2023-07-30T10:57:05;27.10;70.20
3770;DHT22;1900;48.890;9.190;2023-07-30T10:59:38;27.20;70.30
3770;DHT22;1900;48.890;9.190;2023-07-30T11:02:04;27.30;69.80
3770;DHT22;1900;48.890;9.190;2023-07-30T11:04:36;27.40;70.20
3770;DHT22;1900;48.890;9.190;2023-07-30T11:07:02;27.40;69.80
3770;DHT22;1900;48.890;9.190;2023-07-30T11:09:30;27.50;70.00
3770;DHT22;1900;48.890;9.190;2023-07-30T11:11:56;27.50;68.70
3770;DHT22;1900;48.890;9.190;2023-07-30T11:14:23;27.50;68.30
3770;DHT22;1900;48.890;9.190;2023-07-30T11:17:00;27.50;68.00
3770;DHT22;1900;48.890;9.190;2023-07-30T11:19:26;27.50;68.20
3770;DHT22;1900;48.890;9.190;2023-07-30T11:21:55;27.40;68.10
3770;DHT22;1900;48.890;9.190;2023-07-30T11:24:21;27.40;67.70
3770;DHT22;1900;48.890;9.190;2023-07-30T11:27:00;27.30;67.40
3770;DHT22;1900;48.890;9.190;2023-07-30T11:29:27;27.30;67.20
3770;DHT22;1900;48.890;9.190;2023-07-30T11:31:56;27.20;67.20
3770;DHT22;1900;48.890;9.190;2023-07-30T11:34:22;27.10;67.20
3770;DHT22;1900;48.890;9.190;2023-07-30T11:36:49;27.10;67.30
3770;DHT22;1900;48.890;9.190;2023-07-30T11:39:15;27.00;67.40
3770;DHT22;1900;48.890;9.190;2023-07-30T11:41:41;27.00;67.50
3770;DHT22;1900;48.890;9.190;2023-07-30T11:44:07;27.00;67.40
3770;DHT22;1900;48.890;9.190;2023-07-30T11:46:33;27.00;67.40
3770;DHT22;1900;48.890;9.190;2023-07-30T11:49:15;27.00;67.60
3770;DHT22;1900;48.890;9.190;2023-07-30T11:51:43;27.00;67.70
3770;DHT22;1900;48.890;9.190;2023-07-30T11:54:19;27.00;67.80
3770;DHT22;1900;48.890;9.190;2023-07-30T11:56:45;27.00;68.00
3770;DHT22;1900;48.890;9.190;2023-07-30T11:59:10;27.10;68.70
3770;DHT22;1900;48.890;9.190;2023-07-30T12:01:36;27.20;68.80
3770;DHT22;1900;48.890;9.190;2023-07-30T12:04:04;27.30;69.00
3770;DHT22;1900;48.890;9.190;2023-07-30T12:06:48;27.40;68.90
3770;DHT22;1900;48.890;9.190;2023-07-30T12:09:24;27.50;68.70
3770;DHT22;1900;48.890;9.190;2023-07-30T12:11:57;27.60;68.80
3770;DHT22;1900;48.890;9.190;2023-07-30T12:14:42;27.80;68.90
3770;DHT22;1900;48.890;9.190;2023-07-30T12:17:08;27.90;69.40
3770;DHT22;1900;48.890;9.190;2023-07-30T12:19:33;28.00;69.80
3770;DHT22;1900;48.890;9.190;2023-07-30T12:22:02;28.20;70.10
3770;DHT22;1900;48.890;9.190;2023-07-30T12:24:28;28.30;69.90
3770;DHT22;1900;48.890;9.190;2023-07-30T12:26:53;28.40;69.10
3770;DHT22;1900;48.890;9.190;2023-07-30T12:29:19;28.50;68.70
3770;DHT22;1900;48.890;9.190;2023-07-30T12:31:45;28.50;68.50
3770;DHT22;1900;48.890;9.190;2023-07-30T12:34:12;28.60;68.20
3770;DHT22;1900;48.890;9.190;2023-07-30T12:36:37;28.70;68.40
3770;DHT22;1900;48.890;9.190;2023-07-30T12:39:03;28.70;68.70
3770;DHT22;1900;48.890;9.190;2023-07-30T12:41:29;28.80;68.60
3770;DHT22;1900;48.890;9.190;2023-07-30T12:43:56;28.90;68.30
3770;DHT22;1900;48.890;9.190;2023-07-30T12:46:25;29.00;68.50
3770;DHT22;1900;48.890;9.190;2023-07-30T12:48:55;29.10;68.90
3770;DHT22;1900;48.890;9.190;2023-07-30T12:51:22;29.20;68.60
3770;DHT22;1900;48.890;9.190;2023-07-30T12:53:47;29.40;69.00
3770;DHT22;1900;48.890;9.190;2023-07-30T12:56:13;29.50;69.10
3770;DHT22;1900;48.890;9.190;2023-07-30T12:58:40;29.60;69.00
3770;DHT22;1900;48.890;9.190;2023-07-30T13:01:06;29.80;69.30
3770;DHT22;1900;48.890;9.190;2023-07-30T13:03:32;29.90;69.00
3770;DHT22;1900;48.890;9.190;2023-07-30T13:05:58;30.00;68.40
3770;DHT22;1900;48.890;9.190;2023-07-30T13:08:23;30.10;68.70
3770;DHT22;1900;48.890;9.190;2023-07-30T13:10:52;30.10;68.50
3770;DHT22;1900;48.890;9.190;2023-07-30T13:13:20;30.20;67.90
3770;DHT22;1900;48.890;9.190;2023-07-30T13:15:46;30.20;67.40
3770;DHT22;1900;48.890;9.190;2023-07-30T13:18:11;30.20;67.40
3770;DHT22;1900;48.890;9.190;2023-07-30T13:20:37;30.30;67.90
3770;DHT22;1900;48.890;9.190;2023-07-30T13:23:03;30.40;68.30
3770;DHT22;1900;48.890;9.190;2023-07-30T13:25:28;30.50;67.60
3770;DHT22;1900;48.890;9.190;2023-07-30T13:27:54;30.60;67.60
3770;DHT22;1900;48.890;9.190;2023-07-30T13:30:20;30.70;67.70
3770;DHT22;1900;48.890;9.190;2023-07-30T13:32:45;30.80;68.10
3770;DHT22;1900;48.890;9.190;2023-07-30T13:35:11;30.90;67.70
3770;DHT22;1900;48.890;9.190;2023-07-30T13:37:37;31.00;67.60
3770;DHT22;1900;48.890;9.190;2023-07-30T13:40:02;31.10;67.50
3770;DHT22;1900;48.890;9.190;2023-07-30T13:42:28;31.10;66.90
3770;DHT22;1900;48.890;9.190;2023-07-30T13:44:54;31.10;67.00
3770;DHT22;1900;48.890;9.190;2023-07-30T13:47:20;31.20;67.30
3770;DHT22;1900;48.890;9.190;2023-07-30T13:49:46;31.30;66.40
3770;DHT22;1900;48.890;9.190;2023-07-30T13:52:13;31.40;65.70
3770;DHT22;1900;48.890;9.190;2023-07-30T13:54:42;31.40;66.10
3770;DHT22;1900;48.890;9.190;2023-07-30T13:57:09;31.50;65.90
3770;DHT22;1900;48.890;9.190;2023-07-30T13:59:35;31.50;65.80
3770;DHT22;1900;48.890;9.190;2023-07-30T14:02:01;31.50;65.50
3770;DHT22;1900;48.890;9.190;2023-07-30T14:04:27;31.50;65.30
3770;DHT22;1900;48.890;9.190;2023-07-30T14:06:53;31.50;65.50
3770;DHT22;1900;48.890;9.190;2023-07-30T14:09:18;31.50;65.10
3770;DHT22;1900;48.890;9.190;2023-07-30T14:11:44;31.60;65.10
3770;DHT22;1900;48.890;9.190;2023-07-30T14:14:12;31.60;65.10
3770;DHT22;1900;48.890;9.190;2023-07-30T14:16:37;31.60;64.60
3770;DHT22;1900;48.890;9.190;2023-07-30T14:19:03;31.70;65.20
3770;DHT22;1900;48.890;9.190;2023-07-30T14:21:29;31.70;63.60
3770;DHT22;1900;48.890;9.190;2023-07-30T14:23:54;31.70;64.00
3770;DHT22;1900;48.890;9.190;2023-07-30T14:26:20;31.70;64.00
3770;DHT22;1900;48.890;9.190;2023-07-30T14:28:46;31.60;63.90
3770;DHT22;1900;48.890;9.190;2023-07-30T14:31:11;31.60;63.70
3770;DHT22;1900;48.890;9.190;2023-07-30T14:33:37;31.60;64.10
3770;DHT22;1900;48.890;9.190;2023-07-30T14:36:03;31.60;64.50
3770;DHT22;1900;48.890;9.190;2023-07-30T14:38:29;31.70;64.60
3770;DHT22;1900;48.890;9.190;2023-07-30T14:40:57;31.70;64.40
3770;DHT22;1900;48.890;9.190;2023-07-30T14:43:22;31.70;64.50
3770;DHT22;1900;48.890;9.190;2023-07-30T14:45:51;31.70;64.60
3770;DHT22;1900;48.890;9.190;2023-07-30T14:48:17;31.80;64.30
3770;DHT22;1900;48.890;9.190;2023-07-30T14:50:43;31.80;64.20
3770;DHT22;1900;48.890;9.190;2023-07-30T14:53:08;31.80;64.10
3770;DHT22;1900;48.890;9.190;2023-07-30T14:55:34;31.80;63.70
3770;DHT22;1900;48.890;9.190;2023-07-30T14:58:00;31.80;62.90
3770;DHT22;1900;48.890;9.190;2023-07-30T15:00:26;31.70;63.10
3770;DHT22;1900;48.890;9.190;2023-07-30T15:02:52;31.70;62.30
3770;DHT22;1900;48.890;9.190;2023-07-30T15:05:18;31.70;62.20
3770;DHT22;1900;48.890;9.190;2023-07-30T15:07:44;31.70;62.00
3770;DHT22;1900;48.890;9.190;2023-07-30T15:10:10;31.50;61.40
3770;DHT22;1900;48.890;9.190;2023-07-30T15:12:36;31.50;61.30
3770;DHT22;1900;48.890;9.190;2023-07-30T15:15:03;31.40;61.50
3770;DHT22;1900;48.890;9.190;2023-07-30T15:17:29;31.30;61.30
3770;DHT22;1900;48.890;9.190;2023-07-30T15:19:55;31.30;61.40
3770;DHT22;1900;48.890;9.190;2023-07-30T15:22:24;31.20;61.10
3770;DHT22;1900;48.890;9.190;2023-07-30T15:24:50;31.10;61.30
3770;DHT22;1900;48.890;9.190;2023-07-30T15:27:15;31.10;61.40
3770;DHT22;1900;48.890;9.190;2023-07-30T15:29:41;31.10;61.00
3770;DHT22;1900;48.890;9.190;2023-07-30T15:32:07;31.00;60.20
3770;DHT22;1900;48.890;9.190;2023-07-30T15:34:33;30.90;59.90
3770;DHT22;1900;48.890;9.190;2023-07-30T15:36:58;30.80;60.10
3770;DHT22;1900;48.890;9.190;2023-07-30T15:39:25;30.80;60.10
3770;DHT22;1900;48.890;9.190;2023-07-30T15:41:51;30.70;60.00
3770;DHT22;1900;48.890;9.190;2023-07-30T15:44:16;30.60;59.90
3770;DHT22;1900;48.890;9.190;2023-07-30T15:46:45;30.50;60.00
3770;DHT22;1900;48.890;9.190;2023-07-30T15:49:11;30.50;59.90
3770;DHT22;1900;48.890;9.190;2023-07-30T15:51:36;30.40;59.90
3770;DHT22;1900;48.890;9.190;2023-07-30T15:54:02;30.30;59.90
3770;DHT22;1900;48.890;9.190;2023-07-30T15:56:28;30.20;59.60
3770;DHT22;1900;48.890;9.190;2023-07-30T15:58:53;30.10;59.50
3770;DHT22;1900;48.890;9.190;2023-07-30T16:01:19;30.10;59.50